Cathlamet, Washington
Current Conditions -  °F | °C
As of 2:35 AM on Sunday 26 Oct 2014 (Local Time) from KKLS Reporting Station
Overcast Overcast  
Wind Chill: 52°   Ceiling: 6500
Heat Index: 52°   Visibility: 10mi
Dew Point: 45°   Wind: 6mph
Humidity: 76%   Direction: 150°SSE
Pressure: 29.97"   Gusts: NA
Location:  46.2°N, 123.38°W
Report Text: KKLS 260935Z AUTO 15005KT 10SM FEW039 OVC065 11/07 A2997 RMK AO1
Loading
Personal Weather Stations






























Interactive Weather Map New forecast layout! Learn more

10-Day Weather Forecast

Advertisements
Track Severe Weather on mobile